createdAt,value
2022-09-14T00:02:33.744Z,99.90
2022-09-14T00:06:38.459Z,99.90
2022-09-14T00:10:41.203Z,99.90
2022-09-14T00:14:43.317Z,99.90
2022-09-14T00:18:45.317Z,99.90
2022-09-14T00:22:49.892Z,99.90
2022-09-14T00:26:52.328Z,99.90
2022-09-14T00:30:54.281Z,99.90
2022-09-14T00:34:56.238Z,99.90
2022-09-14T00:39:00.976Z,99.90
2022-09-14T00:43:03.501Z,99.90
2022-09-14T00:47:05.546Z,99.90
2022-09-14T00:51:07.530Z,99.90
2022-09-14T00:55:14.611Z,99.90
2022-09-14T00:59:21.951Z,99.90
2022-09-14T01:03:23.885Z,99.90
2022-09-14T01:07:48.196Z,99.90
2022-09-14T01:12:02.129Z,99.90
2022-09-14T01:16:13.555Z,99.90
2022-09-14T01:20:26.396Z,99.90
2022-09-14T01:24:37.592Z,99.90
2022-09-14T01:28:49.266Z,99.90
2022-09-14T01:32:54.889Z,99.90
2022-09-14T01:37:01.219Z,99.90
2022-09-14T01:41:07.029Z,99.90
2022-09-14T01:45:16.068Z,99.90
2022-09-14T01:49:21.514Z,99.90
2022-09-14T01:53:27.171Z,99.90
2022-09-14T01:57:33.951Z,99.90
2022-09-14T02:01:46.391Z,99.90
2022-09-14T02:05:59.568Z,99.90
2022-09-14T02:10:03.509Z,99.90
2022-09-14T02:14:06.237Z,99.90
2022-09-14T02:18:10.990Z,99.90
2022-09-14T02:22:13.570Z,99.90
2022-09-14T02:26:17.696Z,99.90
2022-09-14T02:30:20.293Z,99.90
2022-09-14T02:34:32.738Z,99.90
2022-09-14T02:38:40.338Z,99.90
2022-09-14T02:42:48.321Z,99.90
2022-09-14T02:46:58.491Z,99.90
2022-09-14T02:51:10.395Z,99.90
2022-09-14T02:55:15.161Z,99.90
2022-09-14T02:59:17.353Z,99.90
2022-09-14T03:03:20.891Z,99.90
2022-09-14T03:07:25.394Z,99.90
2022-09-14T03:11:27.349Z,99.90
2022-09-14T03:15:29.826Z,99.90
2022-09-14T03:19:31.774Z,99.90
2022-09-14T03:23:39.373Z,99.90
2022-09-14T03:27:41.421Z,99.90
2022-09-14T03:31:43.494Z,99.90
2022-09-14T03:35:45.488Z,99.90
2022-09-14T03:39:50.046Z,99.90
2022-09-14T03:43:52.299Z,99.90
2022-09-14T03:47:54.305Z,99.90
2022-09-14T03:51:59.664Z,99.90
2022-09-14T03:56:07.104Z,99.90
2022-09-14T04:00:11.050Z,99.90
2022-09-14T04:04:13.321Z,99.90
2022-09-14T04:08:15.299Z,99.90
2022-09-14T04:12:19.866Z,99.90
2022-09-14T04:16:22.328Z,99.90
2022-09-14T04:20:24.316Z,99.90
2022-09-14T04:24:30.087Z,99.90
2022-09-14T04:28:35.225Z,99.90
2022-09-14T04:32:37.175Z,99.90
2022-09-14T04:36:39.143Z,99.90
2022-09-14T04:40:41.402Z,99.90
2022-09-14T04:44:45.926Z,99.90
2022-09-14T04:48:48.609Z,99.90
2022-09-14T04:52:50.565Z,99.90
2022-09-14T04:56:52.521Z,99.90
2022-09-14T05:01:01.606Z,99.90
2022-09-14T05:05:03.852Z,99.90
2022-09-14T05:09:08.168Z,99.90
2022-09-14T05:13:10.137Z,99.90
2022-09-14T05:17:14.725Z,99.90
2022-09-14T05:21:18.456Z,99.90
2022-09-14T05:25:20.390Z,99.90
2022-09-14T05:29:22.320Z,99.90
2022-09-14T05:33:26.826Z,99.90
2022-09-14T05:37:28.777Z,99.90
2022-09-14T05:41:30.747Z,99.90
2022-09-14T05:45:34.082Z,99.90
2022-09-14T05:49:38.635Z,99.90
2022-09-14T05:53:41.290Z,99.90
2022-09-14T05:57:43.195Z,99.90
2022-09-14T06:01:46.543Z,99.90
2022-09-14T06:05:51.172Z,99.90
2022-09-14T06:09:53.146Z,99.90
2022-09-14T06:13:55.875Z,99.90
2022-09-14T06:17:57.977Z,99.90
2022-09-14T06:22:02.591Z,99.90
2022-09-14T06:26:05.738Z,99.90
2022-09-14T06:30:09.342Z,99.90
2022-09-14T06:34:11.272Z,99.90
2022-09-14T06:38:15.789Z,99.90
2022-09-14T06:42:17.866Z,99.90
2022-09-14T06:46:22.039Z,99.90
2022-09-14T06:50:24.391Z,99.90
2022-09-14T06:54:29.094Z,99.90
2022-09-14T06:58:32.135Z,99.90
2022-09-14T07:02:34.123Z,99.90
2022-09-14T07:06:40.818Z,99.90
2022-09-14T07:10:55.124Z,99.90
2022-09-14T07:14:57.042Z,99.90
2022-09-14T07:19:00.626Z,99.90
2022-09-14T07:23:02.680Z,99.90
2022-09-14T07:27:07.437Z,99.90
2022-09-14T07:31:16.495Z,99.90
2022-09-14T07:35:18.515Z,99.90
2022-09-14T07:39:20.441Z,99.90
2022-09-14T07:43:24.972Z,99.90
2022-09-14T07:47:26.937Z,99.90
2022-09-14T07:51:30.724Z,99.90
2022-09-14T07:55:32.710Z,99.90
2022-09-14T07:59:37.681Z,99.90
2022-09-14T08:03:41.186Z,99.90
2022-09-14T08:07:43.104Z,99.90
2022-09-14T08:11:45.045Z,99.90
2022-09-14T08:15:49.645Z,99.90
2022-09-14T08:19:51.629Z,99.90
2022-09-14T08:23:54.739Z,99.90
2022-09-14T08:27:56.693Z,99.90
2022-09-14T08:32:01.571Z,99.90
2022-09-14T08:36:03.883Z,99.90
2022-09-14T08:40:07.849Z,99.90
2022-09-14T08:44:18.253Z,99.90
2022-09-14T08:48:27.262Z,99.90
2022-09-14T08:52:34.043Z,99.90
2022-09-14T08:56:41.795Z,99.90
2022-09-14T09:00:49.018Z,99.90
2022-09-14T09:04:58.554Z,99.90
2022-09-14T09:09:08.808Z,99.90
2022-09-14T09:13:15.009Z,99.90
2022-09-14T09:17:21.559Z,99.90
2022-09-14T09:21:29.007Z,99.90
2022-09-14T09:25:41.209Z,99.90
2022-09-14T09:29:44.029Z,99.90
2022-09-14T09:33:49.068Z,99.70
2022-09-14T09:37:53.633Z,99.10
2022-09-14T09:42:00.698Z,98.70
2022-09-14T09:46:04.904Z,98.10
2022-09-14T09:50:17.821Z,98.50
2022-09-14T09:54:32.296Z,98.10
2022-09-14T09:58:37.973Z,98.10
2022-09-14T10:02:40.600Z,99.00
2022-09-14T10:06:44.508Z,99.70
2022-09-14T10:10:49.127Z,99.50
2022-09-14T10:15:02.882Z,98.50
